KFXE/FXE METAR and TAF weather

Enter ICAO airport designator
Station Type Date Time Source
KFXE METAR 2020/09/22 02:53 UTC NOAA

KFXE 220253Z 06017G23KT 10SM BKN040 BKN047 OVC055 27/20 A3000 RMK AO2 SLP159 60000 T02720200 51013


Station Type Date Time Source
KFXE Decoded METAR 2020/09/22 02:53 UTC NOAA

FORT LAUDERDALE EXECUTIVE, FL, United States (KFXE) 26-12N 080-11W 6M
Sep 21, 2020 - 10:53 PM EDT / 2020.09.22 0253 UTC
Wind: from the ENE (060 degrees) at 20 MPH (17 KT) gusting to 26 MPH (23 KT):0
Visibility: 10 mile(s):0
Sky conditions: overcast
Temperature: 81.0 F (27.2 C)
Dew Point: 68.0 F (20.0 C)
Relative Humidity: 64%
Pressure (altimeter): 30 in. Hg (1015 hPa)
Pressure tendency: 0.04 inches (1.3 hPa) higher than three hours ago
ob: KFXE 220253Z 06017G23KT 10SM BKN040 BKN047 OVC055 27/20 A3000 RMK AO2 SLP159 60000 T02720200 51013
cycle: 3

Station Type Date Time Source
KFXE TAF 2020/09/21 21:54 UTC NOAA

TAF
AMD KFXE 212051Z 2121/2218 05017G27KT P6SM VCSH SCT020 BKN040 OVC060
FM220300 06015G27KT P6SM FEW035 SCT080

Example: see airport list